createdAt,value
2019-01-04T00:01:14.725Z,1.00
2019-01-04T00:03:43.329Z,1.00
2019-01-04T00:06:11.888Z,0.90
2019-01-04T00:08:40.448Z,0.90
2019-01-04T00:11:09.065Z,0.90
2019-01-04T00:13:37.619Z,1.00
2019-01-04T00:16:06.195Z,1.00
2019-01-04T00:18:34.903Z,0.90
2019-01-04T00:21:03.524Z,0.90
2019-01-04T00:23:32.162Z,0.90
2019-01-04T00:26:00.772Z,0.90
2019-01-04T00:28:29.420Z,0.90
2019-01-04T00:30:57.988Z,0.90
2019-01-04T00:33:26.656Z,0.70
2019-01-04T00:35:55.294Z,0.80
2019-01-04T00:38:23.861Z,0.80
2019-01-04T00:40:52.586Z,0.80
2019-01-04T00:43:21.153Z,0.80
2019-01-04T00:45:49.713Z,0.90
2019-01-04T00:48:18.312Z,0.80
2019-01-04T00:50:46.872Z,0.90
2019-01-04T00:53:15.499Z,0.90
2019-01-04T00:55:53.124Z,0.90
2019-01-04T00:58:42.680Z,0.90
2019-01-04T01:01:46.795Z,0.90
2019-01-04T01:04:24.393Z,0.90
2019-01-04T01:07:02.124Z,0.90
2019-01-04T01:09:52.816Z,0.90
2019-01-04T01:12:32.956Z,1.00
2019-01-04T01:15:28.205Z,1.00
2019-01-04T01:18:19.040Z,1.10
2019-01-04T01:20:58.944Z,1.10
2019-01-04T01:23:36.284Z,1.10
2019-01-04T01:26:31.694Z,1.10
2019-01-04T01:29:12.191Z,1.20
2019-01-04T01:31:58.600Z,1.10
2019-01-04T01:34:33.128Z,1.20
2019-01-04T01:37:24.240Z,1.20
2019-01-04T01:40:18.131Z,1.20
2019-01-04T01:43:05.784Z,1.30
2019-01-04T01:45:43.193Z,1.30
2019-01-04T01:48:13.194Z,1.30
2019-01-04T01:51:08.705Z,1.40
2019-01-04T01:53:42.799Z,1.40
2019-01-04T01:56:11.532Z,1.40
2019-01-04T01:58:40.120Z,1.50
2019-01-04T02:01:08.684Z,1.50
2019-01-04T02:03:37.293Z,1.60
2019-01-04T02:06:05.848Z,1.60
2019-01-04T02:08:34.405Z,1.60
2019-01-04T02:11:03.018Z,1.60
2019-01-04T02:13:32.617Z,1.60
2019-01-04T02:16:01.180Z,1.70
2019-01-04T02:18:29.794Z,1.70
2019-01-04T02:20:58.360Z,1.70
2019-01-04T02:23:26.912Z,1.80
2019-01-04T02:25:55.529Z,1.90
2019-01-04T02:28:24.085Z,1.90
2019-01-04T02:30:52.645Z,1.90
2019-01-04T02:33:21.245Z,1.90
2019-01-04T02:35:49.806Z,1.90
2019-01-04T02:38:18.356Z,1.90
2019-01-04T02:40:46.969Z,1.90
2019-01-04T02:43:15.546Z,2.00
2019-01-04T02:45:44.080Z,2.00
2019-01-04T02:48:12.694Z,2.00
2019-01-04T02:50:41.253Z,2.00
2019-01-04T02:53:09.821Z,2.00
2019-01-04T02:55:38.477Z,2.00
2019-01-04T02:58:07.031Z,2.00
2019-01-04T03:00:35.663Z,2.00
2019-01-04T03:03:04.420Z,2.00
2019-01-04T03:05:33.017Z,2.00
2019-01-04T03:08:01.577Z,2.00
2019-01-04T03:10:30.162Z,2.00
2019-01-04T03:12:58.730Z,2.10
2019-01-04T03:15:27.330Z,2.10
2019-01-04T03:17:55.884Z,2.10
2019-01-04T03:20:24.450Z,2.20
2019-01-04T03:22:53.065Z,2.20
2019-01-04T03:25:21.625Z,2.20
2019-01-04T03:27:50.186Z,2.20
2019-01-04T03:30:18.794Z,2.30
2019-01-04T03:32:47.349Z,2.40
2019-01-04T03:35:15.920Z,2.40
2019-01-04T03:37:44.513Z,2.50
2019-01-04T03:40:13.161Z,2.50
2019-01-04T03:42:41.808Z,2.60
2019-01-04T03:45:10.361Z,2.70
2019-01-04T03:47:38.924Z,2.70
2019-01-04T03:50:07.615Z,2.80
2019-01-04T03:52:36.170Z,2.80
2019-01-04T03:55:05.368Z,2.80
2019-01-04T03:57:34.012Z,2.90
2019-01-04T04:00:02.577Z,2.90
2019-01-04T04:02:31.136Z,3.00
2019-01-04T04:04:59.740Z,3.00
2019-01-04T04:07:28.308Z,2.90
2019-01-04T04:09:56.868Z,2.90
2019-01-04T04:12:25.481Z,2.90
2019-01-04T04:14:54.047Z,2.80
2019-01-04T04:17:22.606Z,2.80
2019-01-04T04:19:51.215Z,2.80
2019-01-04T04:22:19.772Z,2.80
2019-01-04T04:24:48.336Z,2.80
2019-01-04T04:27:16.941Z,2.80
2019-01-04T04:29:45.503Z,2.80
2019-01-04T04:32:14.070Z,2.90
2019-01-04T04:34:42.956Z,2.90
2019-01-04T04:37:11.565Z,2.80
2019-01-04T04:39:40.141Z,2.80
2019-01-04T04:42:08.717Z,2.80
2019-01-04T04:44:37.331Z,2.80
2019-01-04T04:47:05.890Z,2.80
2019-01-04T04:49:34.930Z,2.90
2019-01-04T04:52:03.546Z,2.90
2019-01-04T04:54:32.228Z,2.90
2019-01-04T04:57:00.792Z,3.00
2019-01-04T04:59:29.381Z,3.00
2019-01-04T05:01:57.990Z,3.00
2019-01-04T05:04:26.554Z,3.10
2019-01-04T05:06:55.134Z,3.10
2019-01-04T05:09:23.732Z,3.10
2019-01-04T05:11:52.305Z,3.20
2019-01-04T05:14:20.866Z,3.20
2019-01-04T05:16:49.471Z,3.20
2019-01-04T05:19:18.032Z,3.30
2019-01-04T05:21:46.608Z,3.30
2019-01-04T05:24:15.221Z,3.30
2019-01-04T05:26:43.785Z,3.30
2019-01-04T05:29:12.341Z,3.30
2019-01-04T05:31:41.225Z,3.40
2019-01-04T05:34:09.808Z,3.40
2019-01-04T05:36:38.360Z,3.40
2019-01-04T05:39:07.329Z,3.50
2019-01-04T05:41:36.366Z,3.50
2019-01-04T05:44:04.924Z,3.50
2019-01-04T05:46:33.535Z,3.50
2019-01-04T05:49:02.109Z,3.60
2019-01-04T05:51:30.804Z,3.60
2019-01-04T05:53:59.417Z,3.60
2019-01-04T05:56:28.000Z,3.60
2019-01-04T05:58:56.690Z,3.70
2019-01-04T06:01:25.287Z,3.70
2019-01-04T06:03:53.849Z,3.70
2019-01-04T06:06:22.448Z,3.70
2019-01-04T06:08:51.022Z,3.70
2019-01-04T06:11:19.593Z,3.70
2019-01-04T06:13:48.201Z,3.70
2019-01-04T06:16:16.777Z,3.80
2019-01-04T06:18:45.353Z,3.90
2019-01-04T06:21:14.079Z,3.90
2019-01-04T06:23:42.689Z,4.00
2019-01-04T06:26:11.243Z,4.00
2019-01-04T06:28:39.804Z,3.90
2019-01-04T06:31:08.415Z,3.90
2019-01-04T06:33:36.981Z,3.90
2019-01-04T06:36:05.552Z,3.80
2019-01-04T06:38:34.152Z,3.80
2019-01-04T06:41:02.716Z,3.80
2019-01-04T06:43:31.280Z,3.80
2019-01-04T06:45:59.885Z,3.80
2019-01-04T06:48:28.453Z,3.80
2019-01-04T06:50:57.043Z,3.80
2019-01-04T06:53:25.608Z,3.80
2019-01-04T06:55:54.217Z,3.90
2019-01-04T06:58:22.791Z,3.90
2019-01-04T07:00:51.344Z,3.90
2019-01-04T07:03:19.966Z,3.80
2019-01-04T07:05:48.554Z,3.80
2019-01-04T07:08:17.152Z,3.90
2019-01-04T07:10:45.745Z,3.90
2019-01-04T07:13:14.324Z,3.90
2019-01-04T07:15:42.883Z,3.90
2019-01-04T07:18:11.488Z,3.90
2019-01-04T07:20:40.052Z,3.90
2019-01-04T07:23:09.542Z,3.80
2019-01-04T07:25:38.176Z,3.90
2019-01-04T07:28:06.728Z,3.90
2019-01-04T07:30:35.293Z,3.90
2019-01-04T07:33:04.021Z,3.90
2019-01-04T07:35:32.595Z,4.20
2019-01-04T07:38:01.148Z,4.40
2019-01-04T07:40:29.741Z,4.40
2019-01-04T07:42:58.326Z,4.30
2019-01-04T07:45:26.914Z,4.20
2019-01-04T07:47:55.480Z,4.20
2019-01-04T07:50:24.057Z,4.20
2019-01-04T07:52:52.686Z,4.20
2019-01-04T07:55:21.225Z,4.20
2019-01-04T07:57:49.797Z,4.20
2019-01-04T08:00:18.461Z,4.20
2019-01-04T08:02:47.016Z,4.20
2019-01-04T08:05:17.468Z,4.30
2019-01-04T08:07:46.021Z,4.30
2019-01-04T08:10:14.652Z,4.30
2019-01-04T08:12:43.277Z,4.30
2019-01-04T08:15:12.273Z,4.30
2019-01-04T08:17:40.842Z,4.40
2019-01-04T08:20:11.337Z,4.40
2019-01-04T08:22:40.052Z,4.40
2019-01-04T08:25:08.944Z,4.50
2019-01-04T08:27:37.544Z,4.50
2019-01-04T08:30:09.181Z,4.50
2019-01-04T08:32:37.738Z,4.50
2019-01-04T08:35:06.404Z,4.50
2019-01-04T08:37:34.965Z,4.50
2019-01-04T08:40:03.788Z,4.60
2019-01-04T08:42:32.520Z,4.50
2019-01-04T08:45:01.084Z,4.60
2019-01-04T08:47:29.650Z,4.60
2019-01-04T08:49:58.237Z,4.60
2019-01-04T08:52:26.817Z,4.60
2019-01-04T08:54:55.391Z,4.60
2019-01-04T08:57:23.972Z,4.60
2019-01-04T08:59:52.580Z,4.60
2019-01-04T09:02:21.147Z,4.60
2019-01-04T09:04:49.703Z,4.60
2019-01-04T09:07:18.307Z,4.70
2019-01-04T09:09:46.866Z,4.60
2019-01-04T09:12:15.457Z,4.70
2019-01-04T09:14:44.141Z,4.70
2019-01-04T09:17:12.700Z,4.70
2019-01-04T09:19:41.313Z,4.70
2019-01-04T09:22:10.817Z,4.70
2019-01-04T09:24:39.452Z,4.70
2019-01-04T09:27:08.053Z,4.70
2019-01-04T09:29:36.604Z,4.70
2019-01-04T09:32:05.169Z,4.80
2019-01-04T09:34:33.786Z,4.70
2019-01-04T09:37:02.343Z,4.70
2019-01-04T09:39:30.905Z,4.70
2019-01-04T09:42:00.645Z,4.80
2019-01-04T09:44:29.208Z,4.80
2019-01-04T09:46:57.779Z,4.80
2019-01-04T09:49:26.378Z,4.80
2019-01-04T09:51:54.943Z,4.80
2019-01-04T09:54:23.514Z,4.80
2019-01-04T09:56:52.123Z,4.80
2019-01-04T09:59:20.682Z,4.90
2019-01-04T10:01:49.240Z,4.90
2019-01-04T10:04:17.848Z,4.90
2019-01-04T10:06:46.420Z,4.90
2019-01-04T10:09:14.973Z,4.90
2019-01-04T10:11:43.577Z,4.90
2019-01-04T10:14:12.137Z,4.90
2019-01-04T10:16:40.696Z,4.90
2019-01-04T10:19:09.287Z,4.90
2019-01-04T10:21:37.892Z,4.90
2019-01-04T10:24:06.572Z,4.90
2019-01-04T10:26:35.130Z,4.90
2019-01-04T10:29:03.741Z,4.90
2019-01-04T10:31:32.298Z,4.90
2019-01-04T10:34:00.871Z,4.90
2019-01-04T10:36:29.497Z,4.80
2019-01-04T10:38:58.078Z,4.80
2019-01-04T10:41:26.641Z,4.80
2019-01-04T10:43:55.262Z,4.90
2019-01-04T10:46:23.810Z,4.80
2019-01-04T10:48:52.364Z,4.90
2019-01-04T10:51:20.972Z,5.20
2019-01-04T10:53:49.526Z,5.50
2019-01-04T10:56:18.086Z,5.60
2019-01-04T10:58:46.684Z,5.70
2019-01-04T11:01:15.251Z,5.90
2019-01-04T11:03:43.818Z,5.90
2019-01-04T11:06:12.738Z,6.00
2019-01-04T11:08:41.300Z,5.90
2019-01-04T11:11:09.879Z,5.80
2019-01-04T11:13:38.476Z,5.60
2019-01-04T11:16:07.037Z,5.60
2019-01-04T11:18:35.599Z,5.50
2019-01-04T11:21:04.741Z,5.40
2019-01-04T11:23:52.661Z,5.40
2019-01-04T11:26:33.612Z,5.40
2019-01-04T11:29:05.254Z,5.40
2019-01-04T11:31:48.658Z,5.40
2019-01-04T11:34:22.940Z,5.40
2019-01-04T11:36:57.393Z,5.50
2019-01-04T11:39:47.014Z,5.50
2019-01-04T11:42:24.157Z,5.50
2019-01-04T11:45:07.417Z,5.50
2019-01-04T11:47:50.868Z,5.50
2019-01-04T11:50:40.456Z,5.50
2019-01-04T11:53:12.227Z,5.50
2019-01-04T11:55:40.798Z,5.50
2019-01-04T11:58:09.424Z,5.50
2019-01-04T12:00:38.008Z,5.50
2019-01-04T12:03:06.700Z,5.50
2019-01-04T12:05:35.310Z,5.50
2019-01-04T12:08:03.860Z,5.50
2019-01-04T12:10:32.429Z,5.50
2019-01-04T12:13:01.060Z,5.50
2019-01-04T12:15:30.697Z,5.50
2019-01-04T12:17:59.252Z,5.40
2019-01-04T12:20:27.874Z,5.40
2019-01-04T12:22:56.440Z,5.40
2019-01-04T12:25:25.016Z,5.40
2019-01-04T12:27:53.678Z,5.40
2019-01-04T12:30:22.193Z,5.40
2019-01-04T12:32:50.754Z,5.40
2019-01-04T12:35:19.362Z,5.40
2019-01-04T12:37:47.960Z,5.40
2019-01-04T12:40:16.529Z,5.40
2019-01-04T12:42:45.142Z,5.40
2019-01-04T12:45:13.955Z,5.40
2019-01-04T12:47:42.539Z,5.40
2019-01-04T12:50:11.142Z,5.40
2019-01-04T12:52:39.702Z,5.40
2019-01-04T12:55:08.496Z,5.40
2019-01-04T12:57:37.116Z,5.40
2019-01-04T13:00:08.820Z,5.40
2019-01-04T13:02:37.385Z,5.40
2019-01-04T13:05:06.135Z,5.50
2019-01-04T13:07:34.692Z,5.50
2019-01-04T13:10:03.387Z,5.50
2019-01-04T13:12:31.990Z,5.50
2019-01-04T13:15:00.550Z,5.60
2019-01-04T13:17:29.104Z,5.60
2019-01-04T13:19:57.716Z,5.60
2019-01-04T13:22:26.278Z,5.60
2019-01-04T13:24:54.840Z,5.60
2019-01-04T13:27:23.440Z,5.70
2019-01-04T13:29:52.006Z,5.70
2019-01-04T13:32:20.565Z,5.70
2019-01-04T13:34:49.173Z,5.70
2019-01-04T13:37:17.732Z,5.70
2019-01-04T13:39:46.292Z,5.70
2019-01-04T13:42:14.896Z,5.70
2019-01-04T13:44:43.455Z,5.70
2019-01-04T13:47:12.016Z,5.80
2019-01-04T13:49:40.628Z,5.80
2019-01-04T13:52:09.195Z,5.80
2019-01-04T13:54:37.749Z,5.90
2019-01-04T13:57:06.352Z,5.90
2019-01-04T13:59:34.922Z,5.90
2019-01-04T14:02:03.493Z,5.90
2019-01-04T14:04:32.118Z,5.90
2019-01-04T14:07:00.687Z,6.00
2019-01-04T14:09:30.149Z,6.00
2019-01-04T14:11:58.769Z,6.00
2019-01-04T14:14:27.325Z,6.10
2019-01-04T14:16:55.926Z,6.00
2019-01-04T14:19:24.517Z,6.10
2019-01-04T14:21:53.080Z,6.10
2019-01-04T14:24:21.644Z,6.00
2019-01-04T14:26:50.257Z,6.10
2019-01-04T14:29:18.808Z,6.10
2019-01-04T14:31:47.389Z,6.10
2019-01-04T14:34:16.382Z,6.10
2019-01-04T14:36:45.657Z,6.00
2019-01-04T14:39:14.212Z,6.20
2019-01-04T14:41:42.813Z,6.10
2019-01-04T14:44:11.375Z,6.10
2019-01-04T14:46:39.940Z,6.10
2019-01-04T14:49:08.715Z,6.20
2019-01-04T14:51:38.908Z,6.20
2019-01-04T14:54:07.472Z,6.20
2019-01-04T14:56:36.105Z,6.20
2019-01-04T14:59:04.669Z,6.20
2019-01-04T15:01:33.225Z,6.20
2019-01-04T15:04:01.832Z,6.10
2019-01-04T15:06:30.402Z,6.20
2019-01-04T15:08:58.990Z,6.20
2019-01-04T15:11:27.600Z,6.20
2019-01-04T15:13:56.169Z,6.20
2019-01-04T15:16:24.725Z,6.20
2019-01-04T15:18:53.339Z,6.20
2019-01-04T15:21:21.884Z,6.20
2019-01-04T15:23:50.463Z,6.20
2019-01-04T15:26:19.071Z,6.20
2019-01-04T15:28:47.629Z,6.20
2019-01-04T15:31:16.213Z,6.20
2019-01-04T15:33:44.949Z,6.20
2019-01-04T15:36:13.509Z,6.20
2019-01-04T15:38:42.077Z,6.20
2019-01-04T15:41:10.680Z,6.20
2019-01-04T15:43:39.239Z,6.20
2019-01-04T15:46:07.805Z,6.30
2019-01-04T15:48:36.437Z,6.30
2019-01-04T15:51:05.004Z,6.30
2019-01-04T15:53:33.560Z,6.30
2019-01-04T15:56:02.183Z,6.30
2019-01-04T15:58:30.737Z,6.30
2019-01-04T16:00:59.345Z,6.30
2019-01-04T16:03:27.940Z,6.30
2019-01-04T16:05:56.499Z,6.30
2019-01-04T16:08:25.059Z,6.30
2019-01-04T16:10:54.163Z,6.30
2019-01-04T16:13:22.708Z,6.30
2019-01-04T16:15:51.318Z,6.30
2019-01-04T16:18:19.877Z,6.30
2019-01-04T16:20:48.433Z,6.30
2019-01-04T16:23:17.036Z,6.30
2019-01-04T16:25:46.636Z,6.30
2019-01-04T16:28:15.381Z,6.30
2019-01-04T16:30:43.950Z,6.40
2019-01-04T16:33:12.818Z,6.40
2019-01-04T16:35:41.401Z,6.40
2019-01-04T16:38:09.957Z,6.50
2019-01-04T16:40:38.580Z,6.50
2019-01-04T16:43:07.349Z,6.50
2019-01-04T16:45:35.900Z,6.50
2019-01-04T16:48:04.496Z,6.50
2019-01-04T16:50:33.190Z,6.50
2019-01-04T16:53:01.830Z,6.50
2019-01-04T16:55:30.540Z,6.50
2019-01-04T16:57:59.129Z,6.40
2019-01-04T17:00:27.758Z,6.50
2019-01-04T17:02:56.311Z,6.60
2019-01-04T17:05:24.867Z,6.60
2019-01-04T17:07:53.472Z,6.60
2019-01-04T17:10:22.032Z,6.50
2019-01-04T17:12:50.596Z,6.50
2019-01-04T17:15:19.185Z,6.50
2019-01-04T17:17:47.869Z,6.50
2019-01-04T17:20:16.912Z,6.50
2019-01-04T17:22:45.478Z,6.50
2019-01-04T17:25:14.277Z,6.50
2019-01-04T17:27:42.888Z,6.70
2019-01-04T17:30:11.584Z,6.50
2019-01-04T17:32:40.152Z,6.60
2019-01-04T17:35:08.768Z,6.60
2019-01-04T17:37:37.430Z,6.60
2019-01-04T17:40:08.230Z,6.60
2019-01-04T17:42:37.271Z,6.60
2019-01-04T17:45:07.142Z,6.60
2019-01-04T17:47:35.704Z,6.60
2019-01-04T17:50:05.031Z,6.60
2019-01-04T17:52:33.634Z,6.60
2019-01-04T17:55:02.207Z,6.60
2019-01-04T17:57:30.776Z,6.60
2019-01-04T17:59:59.369Z,6.60
2019-01-04T18:02:28.056Z,6.60
2019-01-04T18:04:56.681Z,6.70
2019-01-04T18:07:25.236Z,6.60
2019-01-04T18:09:53.797Z,6.70
2019-01-04T18:12:25.302Z,6.70
2019-01-04T18:14:53.871Z,6.90
2019-01-04T18:17:22.608Z,7.50
2019-01-04T18:19:51.173Z,7.60
2019-01-04T18:22:19.800Z,7.40
2019-01-04T18:24:48.445Z,7.20
2019-01-04T18:27:17.957Z,7.00
2019-01-04T18:29:46.565Z,6.90
2019-01-04T18:32:15.129Z,6.90
2019-01-04T18:34:43.698Z,6.80
2019-01-04T18:37:12.305Z,6.80
2019-01-04T18:39:40.874Z,6.80
2019-01-04T18:42:09.428Z,6.80
2019-01-04T18:44:38.512Z,6.80
2019-01-04T18:47:07.153Z,6.80
2019-01-04T18:49:35.712Z,6.70
2019-01-04T18:52:04.309Z,6.80
2019-01-04T18:54:32.900Z,6.80
2019-01-04T18:57:01.456Z,6.80
2019-01-04T18:59:30.091Z,6.80
2019-01-04T19:01:58.645Z,6.80
2019-01-04T19:04:27.201Z,6.80
2019-01-04T19:06:55.802Z,6.80
2019-01-04T19:09:24.353Z,6.80
2019-01-04T19:11:52.953Z,6.80
2019-01-04T19:14:21.515Z,6.80
2019-01-04T19:16:50.084Z,6.80
2019-01-04T19:19:18.673Z,6.80
2019-01-04T19:21:47.238Z,6.80
2019-01-04T19:24:15.849Z,6.80
2019-01-04T19:26:44.435Z,6.80
2019-01-04T19:29:12.995Z,6.80
2019-01-04T19:31:41.596Z,6.80
2019-01-04T19:34:10.161Z,6.80
2019-01-04T19:36:38.721Z,6.80
2019-01-04T19:39:07.565Z,6.80
2019-01-04T19:41:36.292Z,6.80
2019-01-04T19:44:04.852Z,6.80
2019-01-04T19:46:33.461Z,6.80
2019-01-04T19:49:02.014Z,6.80
2019-01-04T19:51:30.572Z,6.80
2019-01-04T19:53:59.165Z,6.80
2019-01-04T19:56:27.785Z,6.80
2019-01-04T19:58:56.418Z,6.80
2019-01-04T20:01:24.970Z,6.80
2019-01-04T20:03:53.574Z,6.80
2019-01-04T20:06:48.468Z,6.80
2019-01-04T20:09:33.654Z,6.80
2019-01-04T20:12:24.613Z,6.80
2019-01-04T20:15:45.383Z,6.80
2019-01-04T20:18:27.677Z,6.80
2019-01-04T20:21:00.736Z,6.80
2019-01-04T20:23:47.330Z,6.80
2019-01-04T20:26:35.454Z,6.80
2019-01-04T20:29:20.501Z,6.80
2019-01-04T20:32:08.450Z,6.80
2019-01-04T20:34:41.344Z,6.80
2019-01-04T20:37:26.430Z,6.80
2019-01-04T20:40:12.622Z,6.80
2019-01-04T20:42:54.932Z,6.80
2019-01-04T20:45:27.929Z,6.90
2019-01-04T20:48:03.578Z,6.90
2019-01-04T20:50:50.068Z,6.90
2019-01-04T20:53:36.128Z,6.90
2019-01-04T20:56:06.388Z,6.90
2019-01-04T20:58:36.588Z,6.90
2019-01-04T21:01:15.789Z,6.90
2019-01-04T21:04:00.686Z,6.90
2019-01-04T21:06:46.996Z,6.90
2019-01-04T21:09:25.860Z,6.90
2019-01-04T21:11:56.060Z,6.90
2019-01-04T21:14:28.938Z,6.90
2019-01-04T21:17:04.685Z,7.00
2019-01-04T21:19:34.908Z,7.00
2019-01-04T21:22:05.346Z,7.00
2019-01-04T21:24:40.016Z,7.00
2019-01-04T21:27:22.076Z,7.00
2019-01-04T21:30:08.312Z,7.10
2019-01-04T21:32:47.453Z,7.10
2019-01-04T21:35:26.109Z,7.10
2019-01-04T21:38:12.390Z,7.10
2019-01-04T21:40:48.104Z,7.10
2019-01-04T21:43:34.460Z,7.10
2019-01-04T21:46:20.640Z,7.10
2019-01-04T21:48:56.807Z,7.10
2019-01-04T21:51:29.557Z,7.10
2019-01-04T21:54:05.626Z,7.10
2019-01-04T21:56:35.869Z,7.10
2019-01-04T21:59:06.084Z,7.10
2019-01-04T22:01:51.221Z,7.10
2019-01-04T22:04:36.499Z,7.10
2019-01-04T22:07:23.029Z,7.10
2019-01-04T22:10:02.077Z,7.10
2019-01-04T22:12:38.016Z,7.10
2019-01-04T22:15:08.357Z,7.10
2019-01-04T22:17:38.558Z,7.10
2019-01-04T22:20:14.774Z,7.10
2019-01-04T22:22:44.989Z,7.10
2019-01-04T22:25:31.086Z,7.10
2019-01-04T22:28:17.167Z,7.20
2019-01-04T22:31:03.637Z,7.20
2019-01-04T22:33:36.846Z,7.20
2019-01-04T22:36:19.031Z,7.20
2019-01-04T22:39:05.115Z,7.20
2019-01-04T22:41:35.366Z,7.20
2019-01-04T22:44:14.152Z,7.20
2019-01-04T22:46:47.209Z,7.20
2019-01-04T22:49:17.415Z,7.20
2019-01-04T22:52:03.445Z,7.20
2019-01-04T22:54:42.245Z,7.20
2019-01-04T22:57:28.653Z,7.20
2019-01-04T22:59:58.846Z,7.20
2019-01-04T23:02:32.030Z,7.20
2019-01-04T23:05:04.792Z,7.20
2019-01-04T23:07:37.432Z,7.20
2019-01-04T23:10:07.734Z,7.20
2019-01-04T23:12:37.933Z,7.20
2019-01-04T23:15:24.470Z,7.20
2019-01-04T23:18:03.796Z,7.20
2019-01-04T23:20:39.704Z,7.20
2019-01-04T23:23:15.452Z,7.20
2019-01-04T23:25:54.440Z,7.20
2019-01-04T23:28:27.797Z,7.20
2019-01-04T23:31:14.178Z,7.20
2019-01-04T23:33:46.969Z,7.20
2019-01-04T23:36:17.125Z,7.20
2019-01-04T23:38:52.776Z,7.20
2019-01-04T23:41:35.057Z,7.20
2019-01-04T23:44:05.377Z,7.20
2019-01-04T23:46:47.741Z,7.20
2019-01-04T23:49:20.657Z,7.20
2019-01-04T23:52:07.043Z,7.20
2019-01-04T23:54:55.508Z,7.20
2019-01-04T23:57:31.732Z,7.20
